sensor_id;sensor_type;location;lat;lon;timestamp;temperature;humidity
12926;DHT22;6529;50.566;9.774;2023-03-20T00:00:51;9.40;99.90
12926;DHT22;6529;50.566;9.774;2023-03-20T00:03:17;9.40;99.90
12926;DHT22;6529;50.566;9.774;2023-03-20T00:05:43;9.40;99.90
12926;DHT22;6529;50.566;9.774;2023-03-20T00:08:08;9.50;99.90
12926;DHT22;6529;50.566;9.774;2023-03-20T00:10:38;9.50;99.90
12926;DHT22;6529;50.566;9.774;2023-03-20T00:13:05;9.50;99.90
12926;DHT22;6529;50.566;9.774;2023-03-20T00:15:36;9.50;99.90
12926;DHT22;6529;50.566;9.774;2023-03-20T00:18:03;9.50;99.90
12926;DHT22;6529;50.566;9.774;2023-03-20T00:20:35;9.50;99.90
12926;DHT22;6529;50.566;9.774;2023-03-20T00:23:01;9.50;99.90
12926;DHT22;6529;50.566;9.774;2023-03-20T00:25:28;9.50;99.90
12926;DHT22;6529;50.566;9.774;2023-03-20T00:27:53;9.40;99.90
12926;DHT22;6529;50.566;9.774;2023-03-20T00:32:49;9.30;99.90
12926;DHT22;6529;50.566;9.774;2023-03-20T00:35:21;9.20;99.90
12926;DHT22;6529;50.566;9.774;2023-03-20T00:37:47;9.20;99.90
12926;DHT22;6529;50.566;9.774;2023-03-20T00:40:13;9.20;99.90
12926;DHT22;6529;50.566;9.774;2023-03-20T00:42:39;9.20;99.90
12926;DHT22;6529;50.566;9.774;2023-03-20T00:45:05;9.10;99.90
12926;DHT22;6529;50.566;9.774;2023-03-20T00:47:34;9.10;99.90
12926;DHT22;6529;50.566;9.774;2023-03-20T00:50:01;9.10;99.90
12926;DHT22;6529;50.566;9.774;2023-03-20T00:52:27;9.20;99.90
12926;DHT22;6529;50.566;9.774;2023-03-20T00:54:52;9.10;99.90
12926;DHT22;6529;50.566;9.774;2023-03-20T00:57:23;9.10;99.90
12926;DHT22;6529;50.566;9.774;2023-03-20T01:02:25;9.10;99.90
12926;DHT22;6529;50.566;9.774;2023-03-20T01:04:51;9.00;99.90
12926;DHT22;6529;50.566;9.774;2023-03-20T01:07:17;9.10;99.90
12926;DHT22;6529;50.566;9.774;2023-03-20T01:09:42;9.10;99.90
12926;DHT22;6529;50.566;9.774;2023-03-20T01:12:10;9.10;99.90
12926;DHT22;6529;50.566;9.774;2023-03-20T01:14:36;9.10;99.90
12926;DHT22;6529;50.566;9.774;2023-03-20T01:17:02;9.20;99.90
12926;DHT22;6529;50.566;9.774;2023-03-20T01:19:27;9.20;99.90
12926;DHT22;6529;50.566;9.774;2023-03-20T01:21:53;9.20;99.90
12926;DHT22;6529;50.566;9.774;2023-03-20T01:24:18;9.30;99.90
12926;DHT22;6529;50.566;9.774;2023-03-20T01:26:44;9.30;99.90
12926;DHT22;6529;50.566;9.774;2023-03-20T01:29:22;9.40;99.90
12926;DHT22;6529;50.566;9.774;2023-03-20T01:31:50;9.40;99.90
12926;DHT22;6529;50.566;9.774;2023-03-20T01:34:16;9.50;99.90
12926;DHT22;6529;50.566;9.774;2023-03-20T01:36:47;9.50;99.90
12926;DHT22;6529;50.566;9.774;2023-03-20T01:39:14;9.50;99.90
12926;DHT22;6529;50.566;9.774;2023-03-20T01:41:40;9.50;99.90
12926;DHT22;6529;50.566;9.774;2023-03-20T01:44:32;9.50;99.90
12926;DHT22;6529;50.566;9.774;2023-03-20T01:47:00;9.60;99.90
12926;DHT22;6529;50.566;9.774;2023-03-20T01:51:53;9.60;99.90
12926;DHT22;6529;50.566;9.774;2023-03-20T01:56:51;9.40;99.90
12926;DHT22;6529;50.566;9.774;2023-03-20T01:59:27;9.40;99.90
12926;DHT22;6529;50.566;9.774;2023-03-20T02:01:53;9.40;99.90
12926;DHT22;6529;50.566;9.774;2023-03-20T02:04:24;9.40;99.90
12926;DHT22;6529;50.566;9.774;2023-03-20T02:06:51;9.40;99.90
12926;DHT22;6529;50.566;9.774;2023-03-20T02:09:17;9.40;99.90
12926;DHT22;6529;50.566;9.774;2023-03-20T02:11:44;9.30;99.90
12926;DHT22;6529;50.566;9.774;2023-03-20T02:14:11;9.30;99.90
12926;DHT22;6529;50.566;9.774;2023-03-20T02:16:37;9.30;99.90
12926;DHT22;6529;50.566;9.774;2023-03-20T02:19:04;9.30;99.90
12926;DHT22;6529;50.566;9.774;2023-03-20T02:22:09;9.30;99.90
12926;DHT22;6529;50.566;9.774;2023-03-20T02:39:35;9.30;99.90
12926;DHT22;6529;50.566;9.774;2023-03-20T02:42:17;9.30;99.90
12926;DHT22;6529;50.566;9.774;2023-03-20T02:45:46;9.40;99.90
12926;DHT22;6529;50.566;9.774;2023-03-20T02:50:46;9.40;99.90
12926;DHT22;6529;50.566;9.774;2023-03-20T02:56:36;9.40;99.90
12926;DHT22;6529;50.566;9.774;2023-03-20T02:59:34;9.40;99.90
12926;DHT22;6529;50.566;9.774;2023-03-20T03:02:06;9.40;99.90
12926;DHT22;6529;50.566;9.774;2023-03-20T03:04:37;9.40;99.90
12926;DHT22;6529;50.566;9.774;2023-03-20T03:07:04;9.40;99.90
12926;DHT22;6529;50.566;9.774;2023-03-20T03:09:52;9.30;99.90
12926;DHT22;6529;50.566;9.774;2023-03-20T03:12:21;9.40;99.90
12926;DHT22;6529;50.566;9.774;2023-03-20T03:14:51;9.30;99.90
12926;DHT22;6529;50.566;9.774;2023-03-20T03:17:21;9.30;99.90
12926;DHT22;6529;50.566;9.774;2023-03-20T03:19:51;9.30;99.90
12926;DHT22;6529;50.566;9.774;2023-03-20T03:22:18;9.30;99.90
12926;DHT22;6529;50.566;9.774;2023-03-20T03:24:49;9.30;99.90
12926;DHT22;6529;50.566;9.774;2023-03-20T03:27:23;9.40;99.90
12926;DHT22;6529;50.566;9.774;2023-03-20T03:30:03;9.40;99.90
12926;DHT22;6529;50.566;9.774;2023-03-20T03:32:34;9.40;99.90
12926;DHT22;6529;50.566;9.774;2023-03-20T03:35:03;9.40;99.90
12926;DHT22;6529;50.566;9.774;2023-03-20T03:37:45;9.40;99.90
12926;DHT22;6529;50.566;9.774;2023-03-20T03:42:55;9.40;99.90
12926;DHT22;6529;50.566;9.774;2023-03-20T03:45:34;9.40;99.90
12926;DHT22;6529;50.566;9.774;2023-03-20T03:48:10;9.40;99.90
12926;DHT22;6529;50.566;9.774;2023-03-20T03:50:44;9.40;99.90
12926;DHT22;6529;50.566;9.774;2023-03-20T03:53:16;9.40;99.90
12926;DHT22;6529;50.566;9.774;2023-03-20T03:55:47;9.40;99.90
12926;DHT22;6529;50.566;9.774;2023-03-20T04:00:48;9.30;99.90
12926;DHT22;6529;50.566;9.774;2023-03-20T04:03:16;9.30;99.90
12926;DHT22;6529;50.566;9.774;2023-03-20T04:05:44;9.30;99.90
12926;DHT22;6529;50.566;9.774;2023-03-20T04:08:10;9.20;99.90
12926;DHT22;6529;50.566;9.774;2023-03-20T04:10:36;9.20;99.90
12926;DHT22;6529;50.566;9.774;2023-03-20T04:13:01;9.20;99.90
12926;DHT22;6529;50.566;9.774;2023-03-20T04:15:27;9.20;99.90
12926;DHT22;6529;50.566;9.774;2023-03-20T04:17:53;9.20;99.90
12926;DHT22;6529;50.566;9.774;2023-03-20T04:20:19;9.20;99.90
12926;DHT22;6529;50.566;9.774;2023-03-20T04:22:44;9.20;99.90
12926;DHT22;6529;50.566;9.774;2023-03-20T04:25:19;9.10;99.90
12926;DHT22;6529;50.566;9.774;2023-03-20T04:27:46;9.10;99.90
12926;DHT22;6529;50.566;9.774;2023-03-20T04:30:12;9.10;99.90
12926;DHT22;6529;50.566;9.774;2023-03-20T04:32:38;9.10;99.90
12926;DHT22;6529;50.566;9.774;2023-03-20T04:35:04;9.10;99.90
12926;DHT22;6529;50.566;9.774;2023-03-20T04:37:30;9.10;99.90
12926;DHT22;6529;50.566;9.774;2023-03-20T04:39:56;9.10;99.90
12926;DHT22;6529;50.566;9.774;2023-03-20T04:42:21;9.10;99.90
12926;DHT22;6529;50.566;9.774;2023-03-20T04:44:47;9.10;99.90
12926;DHT22;6529;50.566;9.774;2023-03-20T04:47:12;9.10;99.90
12926;DHT22;6529;50.566;9.774;2023-03-20T04:49:38;9.20;99.90
12926;DHT22;6529;50.566;9.774;2023-03-20T04:52:03;9.20;99.90
12926;DHT22;6529;50.566;9.774;2023-03-20T04:54:29;9.20;99.90
12926;DHT22;6529;50.566;9.774;2023-03-20T04:56:55;9.20;99.90
12926;DHT22;6529;50.566;9.774;2023-03-20T04:59:20;9.20;99.90
12926;DHT22;6529;50.566;9.774;2023-03-20T05:01:46;9.10;99.90
12926;DHT22;6529;50.566;9.774;2023-03-20T05:04:12;9.10;99.90
12926;DHT22;6529;50.566;9.774;2023-03-20T05:06:37;9.10;99.90
12926;DHT22;6529;50.566;9.774;2023-03-20T05:09:03;9.10;99.90
12926;DHT22;6529;50.566;9.774;2023-03-20T05:11:28;9.20;99.90
12926;DHT22;6529;50.566;9.774;2023-03-20T05:13:54;9.10;99.90
12926;DHT22;6529;50.566;9.774;2023-03-20T05:16:20;9.10;99.90
12926;DHT22;6529;50.566;9.774;2023-03-20T05:18:46;9.10;99.90
12926;DHT22;6529;50.566;9.774;2023-03-20T05:21:11;9.10;99.90
12926;DHT22;6529;50.566;9.774;2023-03-20T05:23:37;9.20;99.90
12926;DHT22;6529;50.566;9.774;2023-03-20T05:26:03;9.10;99.90
12926;DHT22;6529;50.566;9.774;2023-03-20T05:28:29;9.10;99.90
12926;DHT22;6529;50.566;9.774;2023-03-20T05:30:55;9.10;99.90
12926;DHT22;6529;50.566;9.774;2023-03-20T05:33:21;9.10;99.90
12926;DHT22;6529;50.566;9.774;2023-03-20T05:35:46;9.00;99.90
12926;DHT22;6529;50.566;9.774;2023-03-20T05:38:12;9.00;99.90
12926;DHT22;6529;50.566;9.774;2023-03-20T05:40:38;8.90;99.90
12926;DHT22;6529;50.566;9.774;2023-03-20T05:43:03;8.80;99.90
12926;DHT22;6529;50.566;9.774;2023-03-20T05:45:29;8.80;99.90
12926;DHT22;6529;50.566;9.774;2023-03-20T05:47:55;8.80;99.90
12926;DHT22;6529;50.566;9.774;2023-03-20T05:50:21;8.80;99.90
12926;DHT22;6529;50.566;9.774;2023-03-20T05:52:47;8.90;99.90
12926;DHT22;6529;50.566;9.774;2023-03-20T05:55:13;8.80;99.90
12926;DHT22;6529;50.566;9.774;2023-03-20T05:57:40;8.80;99.90
12926;DHT22;6529;50.566;9.774;2023-03-20T06:00:06;8.80;99.90
12926;DHT22;6529;50.566;9.774;2023-03-20T06:02:33;8.90;99.90
12926;DHT22;6529;50.566;9.774;2023-03-20T06:04:58;8.80;99.90
12926;DHT22;6529;50.566;9.774;2023-03-20T06:07:24;8.80;99.90
12926;DHT22;6529;50.566;9.774;2023-03-20T06:09:49;8.90;99.90
12926;DHT22;6529;50.566;9.774;2023-03-20T06:12:16;8.90;99.90
12926;DHT22;6529;50.566;9.774;2023-03-20T06:14:41;8.90;99.90
12926;DHT22;6529;50.566;9.774;2023-03-20T06:17:07;8.90;99.90
12926;DHT22;6529;50.566;9.774;2023-03-20T06:19:33;8.90;99.90
12926;DHT22;6529;50.566;9.774;2023-03-20T06:21:58;8.90;99.90
12926;DHT22;6529;50.566;9.774;2023-03-20T06:24:24;8.90;99.90
12926;DHT22;6529;50.566;9.774;2023-03-20T06:26:50;8.90;99.90
12926;DHT22;6529;50.566;9.774;2023-03-20T06:29:15;8.90;99.90
12926;DHT22;6529;50.566;9.774;2023-03-20T06:31:41;8.90;99.90
12926;DHT22;6529;50.566;9.774;2023-03-20T06:34:06;8.90;99.90
12926;DHT22;6529;50.566;9.774;2023-03-20T06:36:32;8.90;99.90
12926;DHT22;6529;50.566;9.774;2023-03-20T06:38:58;8.90;99.90
12926;DHT22;6529;50.566;9.774;2023-03-20T06:41:23;8.90;99.90
12926;DHT22;6529;50.566;9.774;2023-03-20T06:43:49;8.90;99.90
12926;DHT22;6529;50.566;9.774;2023-03-20T06:46:14;8.90;99.90
12926;DHT22;6529;50.566;9.774;2023-03-20T06:48:40;8.90;99.90
12926;DHT22;6529;50.566;9.774;2023-03-20T06:51:06;8.90;99.90
12926;DHT22;6529;50.566;9.774;2023-03-20T06:53:32;8.90;99.90
12926;DHT22;6529;50.566;9.774;2023-03-20T06:55:58;8.90;99.90
12926;DHT22;6529;50.566;9.774;2023-03-20T06:58:24;8.90;99.90
12926;DHT22;6529;50.566;9.774;2023-03-20T07:00:49;8.90;99.90
12926;DHT22;6529;50.566;9.774;2023-03-20T07:03:16;8.90;99.90
12926;DHT22;6529;50.566;9.774;2023-03-20T07:05:42;8.90;99.90
12926;DHT22;6529;50.566;9.774;2023-03-20T07:08:08;8.90;99.90
12926;DHT22;6529;50.566;9.774;2023-03-20T07:10:34;9.00;99.90
12926;DHT22;6529;50.566;9.774;2023-03-20T07:13:00;9.00;99.90
12926;DHT22;6529;50.566;9.774;2023-03-20T07:15:25;9.00;99.90
12926;DHT22;6529;50.566;9.774;2023-03-20T07:17:51;9.00;99.90
12926;DHT22;6529;50.566;9.774;2023-03-20T07:20:18;9.00;99.90
12926;DHT22;6529;50.566;9.774;2023-03-20T07:22:43;9.00;99.90
12926;DHT22;6529;50.566;9.774;2023-03-20T07:25:10;9.00;99.90
12926;DHT22;6529;50.566;9.774;2023-03-20T07:27:35;9.00;99.90
12926;DHT22;6529;50.566;9.774;2023-03-20T07:30:03;9.00;99.90
12926;DHT22;6529;50.566;9.774;2023-03-20T07:32:29;9.10;99.90
12926;DHT22;6529;50.566;9.774;2023-03-20T07:34:54;9.20;99.90
12926;DHT22;6529;50.566;9.774;2023-03-20T07:37:20;9.20;99.90
12926;DHT22;6529;50.566;9.774;2023-03-20T07:39:46;9.20;99.90
12926;DHT22;6529;50.566;9.774;2023-03-20T07:42:11;9.20;99.90
12926;DHT22;6529;50.566;9.774;2023-03-20T07:44:38;9.20;99.90
12926;DHT22;6529;50.566;9.774;2023-03-20T07:47:04;9.20;99.90
12926;DHT22;6529;50.566;9.774;2023-03-20T07:49:30;9.20;99.90
12926;DHT22;6529;50.566;9.774;2023-03-20T07:51:56;9.30;99.90
12926;DHT22;6529;50.566;9.774;2023-03-20T07:54:22;9.30;99.90
12926;DHT22;6529;50.566;9.774;2023-03-20T07:56:48;9.40;99.90
12926;DHT22;6529;50.566;9.774;2023-03-20T07:59:14;9.40;99.90
12926;DHT22;6529;50.566;9.774;2023-03-20T08:01:40;9.40;99.90
12926;DHT22;6529;50.566;9.774;2023-03-20T08:04:06;9.50;99.90
12926;DHT22;6529;50.566;9.774;2023-03-20T08:06:32;9.50;99.90
12926;DHT22;6529;50.566;9.774;2023-03-20T08:08:57;9.50;99.90
12926;DHT22;6529;50.566;9.774;2023-03-20T08:11:23;9.60;99.90
12926;DHT22;6529;50.566;9.774;2023-03-20T08:13:49;9.60;99.90
12926;DHT22;6529;50.566;9.774;2023-03-20T08:16:14;9.60;99.90
12926;DHT22;6529;50.566;9.774;2023-03-20T08:18:40;9.60;99.90
12926;DHT22;6529;50.566;9.774;2023-03-20T08:21:07;9.70;99.90
12926;DHT22;6529;50.566;9.774;2023-03-20T08:23:32;9.70;99.90
12926;DHT22;6529;50.566;9.774;2023-03-20T08:25:58;9.80;99.90
12926;DHT22;6529;50.566;9.774;2023-03-20T08:28:23;9.80;99.90
12926;DHT22;6529;50.566;9.774;2023-03-20T08:30:49;9.70;99.90
12926;DHT22;6529;50.566;9.774;2023-03-20T08:33:16;9.70;99.90
12926;DHT22;6529;50.566;9.774;2023-03-20T08:35:42;9.70;99.90
12926;DHT22;6529;50.566;9.774;2023-03-20T08:38:12;9.80;99.90
12926;DHT22;6529;50.566;9.774;2023-03-20T08:40:41;9.80;99.90
12926;DHT22;6529;50.566;9.774;2023-03-20T08:43:07;9.80;99.90
12926;DHT22;6529;50.566;9.774;2023-03-20T08:45:33;9.80;99.90
12926;DHT22;6529;50.566;9.774;2023-03-20T08:47:58;9.80;99.90
12926;DHT22;6529;50.566;9.774;2023-03-20T08:50:24;9.90;99.90
12926;DHT22;6529;50.566;9.774;2023-03-20T08:52:50;9.90;99.90
12926;DHT22;6529;50.566;9.774;2023-03-20T08:55:16;9.90;99.90
12926;DHT22;6529;50.566;9.774;2023-03-20T08:57:42;10.00;99.90
12926;DHT22;6529;50.566;9.774;2023-03-20T09:00:10;10.10;99.90
12926;DHT22;6529;50.566;9.774;2023-03-20T09:02:37;10.00;99.90
12926;DHT22;6529;50.566;9.774;2023-03-20T09:05:02;10.00;99.90
12926;DHT22;6529;50.566;9.774;2023-03-20T09:07:28;9.90;99.90
12926;DHT22;6529;50.566;9.774;2023-03-20T09:09:54;9.90;99.90
12926;DHT22;6529;50.566;9.774;2023-03-20T09:12:20;9.90;99.90
12926;DHT22;6529;50.566;9.774;2023-03-20T09:14:45;9.80;99.90
12926;DHT22;6529;50.566;9.774;2023-03-20T09:17:11;9.80;99.90
12926;DHT22;6529;50.566;9.774;2023-03-20T09:19:37;9.80;99.90
12926;DHT22;6529;50.566;9.774;2023-03-20T09:22:04;9.70;99.90
12926;DHT22;6529;50.566;9.774;2023-03-20T09:24:30;9.70;99.90
12926;DHT22;6529;50.566;9.774;2023-03-20T09:26:57;9.70;99.90
12926;DHT22;6529;50.566;9.774;2023-03-20T09:29:23;9.70;99.90
12926;DHT22;6529;50.566;9.774;2023-03-20T09:31:48;9.80;99.90
12926;DHT22;6529;50.566;9.774;2023-03-20T09:34:14;9.70;99.90
12926;DHT22;6529;50.566;9.774;2023-03-20T09:36:39;9.70;99.90
12926;DHT22;6529;50.566;9.774;2023-03-20T09:39:05;9.70;99.90
12926;DHT22;6529;50.566;9.774;2023-03-20T09:41:31;9.70;99.90
12926;DHT22;6529;50.566;9.774;2023-03-20T09:44:15;9.70;99.90
12926;DHT22;6529;50.566;9.774;2023-03-20T09:47:03;9.70;99.90
12926;DHT22;6529;50.566;9.774;2023-03-20T09:49:39;9.70;99.90
12926;DHT22;6529;50.566;9.774;2023-03-20T09:54:45;9.60;99.90
12926;DHT22;6529;50.566;9.774;2023-03-20T09:57:23;9.60;99.90
12926;DHT22;6529;50.566;9.774;2023-03-20T09:59:55;9.60;99.90
12926;DHT22;6529;50.566;9.774;2023-03-20T10:02:35;9.60;99.90
12926;DHT22;6529;50.566;9.774;2023-03-20T10:05:02;9.70;99.90
12926;DHT22;6529;50.566;9.774;2023-03-20T10:07:28;9.70;99.90
12926;DHT22;6529;50.566;9.774;2023-03-20T10:09:54;9.70;99.90
12926;DHT22;6529;50.566;9.774;2023-03-20T10:12:27;9.80;99.90
12926;DHT22;6529;50.566;9.774;2023-03-20T10:17:51;9.80;99.90
12926;DHT22;6529;50.566;9.774;2023-03-20T10:23:02;9.70;99.90
12926;DHT22;6529;50.566;9.774;2023-03-20T10:25:58;9.70;99.90
12926;DHT22;6529;50.566;9.774;2023-03-20T10:32:02;9.60;99.90
12926;DHT22;6529;50.566;9.774;2023-03-20T10:42:54;9.60;99.90
12926;DHT22;6529;50.566;9.774;2023-03-20T10:45:56;9.60;99.90
12926;DHT22;6529;50.566;9.774;2023-03-20T10:48:28;9.70;99.90
12926;DHT22;6529;50.566;9.774;2023-03-20T10:50:58;9.80;99.90
12926;DHT22;6529;50.566;9.774;2023-03-20T10:53:45;9.80;99.90
12926;DHT22;6529;50.566;9.774;2023-03-20T10:56:24;9.80;99.90
12926;DHT22;6529;50.566;9.774;2023-03-20T10:58:58;9.90;99.90
12926;DHT22;6529;50.566;9.774;2023-03-20T11:01:27;10.60;99.90
12926;DHT22;6529;50.566;9.774;2023-03-20T11:03:53;10.50;99.90
12926;DHT22;6529;50.566;9.774;2023-03-20T11:06:24;10.30;99.90
12926;DHT22;6529;50.566;9.774;2023-03-20T11:08:53;10.20;99.90
12926;DHT22;6529;50.566;9.774;2023-03-20T11:11:26;10.20;99.90
12926;DHT22;6529;50.566;9.774;2023-03-20T11:13:52;10.10;99.90
12926;DHT22;6529;50.566;9.774;2023-03-20T11:16:22;10.10;99.90
12926;DHT22;6529;50.566;9.774;2023-03-20T11:18:49;10.10;99.90
12926;DHT22;6529;50.566;9.774;2023-03-20T11:23:48;10.50;99.90
12926;DHT22;6529;50.566;9.774;2023-03-20T11:26:16;10.70;99.90
12926;DHT22;6529;50.566;9.774;2023-03-20T11:28:52;10.70;99.90
12926;DHT22;6529;50.566;9.774;2023-03-20T11:31:29;10.80;99.90
12926;DHT22;6529;50.566;9.774;2023-03-20T11:36:30;10.90;99.90
12926;DHT22;6529;50.566;9.774;2023-03-20T11:39:24;11.00;99.90
12926;DHT22;6529;50.566;9.774;2023-03-20T11:41:53;11.20;99.90
12926;DHT22;6529;50.566;9.774;2023-03-20T11:49:25;11.40;99.90
12926;DHT22;6529;50.566;9.774;2023-03-20T11:51:58;11.30;99.90
12926;DHT22;6529;50.566;9.774;2023-03-20T11:54:26;11.20;99.90
12926;DHT22;6529;50.566;9.774;2023-03-20T11:56:54;10.90;99.90
12926;DHT22;6529;50.566;9.774;2023-03-20T11:59:20;10.90;99.90
12926;DHT22;6529;50.566;9.774;2023-03-20T12:04:34;10.70;99.90
12926;DHT22;6529;50.566;9.774;2023-03-20T12:07:14;10.70;99.90
12926;DHT22;6529;50.566;9.774;2023-03-20T12:09:51;10.80;99.90
12926;DHT22;6529;50.566;9.774;2023-03-20T12:12:44;10.90;99.90
12926;DHT22;6529;50.566;9.774;2023-03-20T12:25:41;11.10;99.90
12926;DHT22;6529;50.566;9.774;2023-03-20T12:28:25;11.10;99.90
12926;DHT22;6529;50.566;9.774;2023-03-20T12:33:46;11.00;99.90
12926;DHT22;6529;50.566;9.774;2023-03-20T12:36:16;11.00;99.90
12926;DHT22;6529;50.566;9.774;2023-03-20T12:38:43;11.00;99.90
12926;DHT22;6529;50.566;9.774;2023-03-20T12:41:25;11.00;99.90
12926;DHT22;6529;50.566;9.774;2023-03-20T12:49:15;10.90;99.90
12926;DHT22;6529;50.566;9.774;2023-03-20T12:52:29;11.10;99.90
12926;DHT22;6529;50.566;9.774;2023-03-20T12:58:22;11.50;99.90
12926;DHT22;6529;50.566;9.774;2023-03-20T13:01:05;11.50;99.90
12926;DHT22;6529;50.566;9.774;2023-03-20T13:14:43;11.60;99.90
12926;DHT22;6529;50.566;9.774;2023-03-20T13:22:41;11.70;99.90
12926;DHT22;6529;50.566;9.774;2023-03-20T13:25:38;11.90;99.90
12926;DHT22;6529;50.566;9.774;2023-03-20T13:31:19;11.70;99.90
12926;DHT22;6529;50.566;9.774;2023-03-20T13:41:48;11.50;99.90
12926;DHT22;6529;50.566;9.774;2023-03-20T13:44:17;11.50;99.90
12926;DHT22;6529;50.566;9.774;2023-03-20T13:46:53;11.50;99.90
12926;DHT22;6529;50.566;9.774;2023-03-20T13:52:15;11.50;99.90
12926;DHT22;6529;50.566;9.774;2023-03-20T14:03:14;11.60;99.90
12926;DHT22;6529;50.566;9.774;2023-03-20T14:05:42;11.70;99.90
12926;DHT22;6529;50.566;9.774;2023-03-20T14:10:45;11.80;99.90
12926;DHT22;6529;50.566;9.774;2023-03-20T14:13:17;11.80;99.90
12926;DHT22;6529;50.566;9.774;2023-03-20T14:15:54;11.90;99.90
12926;DHT22;6529;50.566;9.774;2023-03-20T14:18:23;12.00;99.90
12926;DHT22;6529;50.566;9.774;2023-03-20T14:21:00;12.10;99.90
12926;DHT22;6529;50.566;9.774;2023-03-20T14:23:44;12.10;99.90
12926;DHT22;6529;50.566;9.774;2023-03-20T14:26:27;12.10;99.90
12926;DHT22;6529;50.566;9.774;2023-03-20T14:31:32;12.20;99.90
12926;DHT22;6529;50.566;9.774;2023-03-20T14:50:33;12.00;99.90
12926;DHT22;6529;50.566;9.774;2023-03-20T14:56:10;11.80;99.90
12926;DHT22;6529;50.566;9.774;2023-03-20T15:01:14;11.80;99.90
12926;DHT22;6529;50.566;9.774;2023-03-20T15:03:41;11.90;99.90
12926;DHT22;6529;50.566;9.774;2023-03-20T15:06:08;11.80;99.90
12926;DHT22;6529;50.566;9.774;2023-03-20T15:08:41;11.80;99.90
12926;DHT22;6529;50.566;9.774;2023-03-20T15:11:10;11.70;99.90
12926;DHT22;6529;50.566;9.774;2023-03-20T15:13:37;11.70;99.90
12926;DHT22;6529;50.566;9.774;2023-03-20T15:16:12;11.70;99.90
12926;DHT22;6529;50.566;9.774;2023-03-20T15:18:44;11.70;99.90
12926;DHT22;6529;50.566;9.774;2023-03-20T15:21:18;11.70;99.90
12926;DHT22;6529;50.566;9.774;2023-03-20T15:23:46;11.70;99.90
12926;DHT22;6529;50.566;9.774;2023-03-20T15:26:17;11.70;99.90
12926;DHT22;6529;50.566;9.774;2023-03-20T15:28:44;11.70;99.90
12926;DHT22;6529;50.566;9.774;2023-03-20T15:31:27;11.70;99.90
12926;DHT22;6529;50.566;9.774;2023-03-20T15:33:55;11.70;99.90
12926;DHT22;6529;50.566;9.774;2023-03-20T15:36:24;11.60;99.90
12926;DHT22;6529;50.566;9.774;2023-03-20T15:38:51;11.60;99.90
12926;DHT22;6529;50.566;9.774;2023-03-20T15:41:27;11.60;99.90
12926;DHT22;6529;50.566;9.774;2023-03-20T15:46:28;11.60;99.90
12926;DHT22;6529;50.566;9.774;2023-03-20T15:48:54;11.50;99.90
12926;DHT22;6529;50.566;9.774;2023-03-20T15:51:23;11.50;99.90
12926;DHT22;6529;50.566;9.774;2023-03-20T15:53:50;11.40;99.90
12926;DHT22;6529;50.566;9.774;2023-03-20T15:56:18;11.30;99.90
12926;DHT22;6529;50.566;9.774;2023-03-20T15:58:46;11.30;99.90
12926;DHT22;6529;50.566;9.774;2023-03-20T16:01:17;11.30;99.90
12926;DHT22;6529;50.566;9.774;2023-03-20T16:03:43;11.20;99.90
12926;DHT22;6529;50.566;9.774;2023-03-20T16:06:11;11.20;99.90
12926;DHT22;6529;50.566;9.774;2023-03-20T16:08:39;11.10;99.90
12926;DHT22;6529;50.566;9.774;2023-03-20T16:11:13;11.10;99.90
12926;DHT22;6529;50.566;9.774;2023-03-20T16:13:42;11.10;99.90
12926;DHT22;6529;50.566;9.774;2023-03-20T16:16:14;11.10;99.90
12926;DHT22;6529;50.566;9.774;2023-03-20T16:18:40;11.10;99.90
12926;DHT22;6529;50.566;9.774;2023-03-20T16:21:11;11.10;99.90
12926;DHT22;6529;50.566;9.774;2023-03-20T16:23:43;11.10;99.90
12926;DHT22;6529;50.566;9.774;2023-03-20T16:26:17;11.00;99.90
12926;DHT22;6529;50.566;9.774;2023-03-20T16:28:49;11.00;99.90
12926;DHT22;6529;50.566;9.774;2023-03-20T16:33:43;11.10;99.90
12926;DHT22;6529;50.566;9.774;2023-03-20T16:36:19;11.00;99.90
12926;DHT22;6529;50.566;9.774;2023-03-20T16:41:42;11.00;99.90
12926;DHT22;6529;50.566;9.774;2023-03-20T16:44:14;10.90;99.90
12926;DHT22;6529;50.566;9.774;2023-03-20T16:47:00;10.90;99.90
12926;DHT22;6529;50.566;9.774;2023-03-20T16:52:00;10.90;99.90
12926;DHT22;6529;50.566;9.774;2023-03-20T16:54:31;10.80;99.90
12926;DHT22;6529;50.566;9.774;2023-03-20T16:56:59;10.80;99.90
12926;DHT22;6529;50.566;9.774;2023-03-20T16:59:25;10.80;99.90
12926;DHT22;6529;50.566;9.774;2023-03-20T17:01:51;10.80;99.90
12926;DHT22;6529;50.566;9.774;2023-03-20T17:04:32;10.80;99.90
12926;DHT22;6529;50.566;9.774;2023-03-20T17:07:01;10.80;99.90
12926;DHT22;6529;50.566;9.774;2023-03-20T17:09:30;10.70;99.90
12926;DHT22;6529;50.566;9.774;2023-03-20T17:14:25;10.60;99.90
12926;DHT22;6529;50.566;9.774;2023-03-20T17:16:51;10.60;99.90
12926;DHT22;6529;50.566;9.774;2023-03-20T17:19:19;10.50;99.90
12926;DHT22;6529;50.566;9.774;2023-03-20T17:21:45;10.50;99.90
12926;DHT22;6529;50.566;9.774;2023-03-20T17:24:13;10.50;99.90
12926;DHT22;6529;50.566;9.774;2023-03-20T17:26:40;10.40;99.90
12926;DHT22;6529;50.566;9.774;2023-03-20T17:29:06;10.30;99.90
12926;DHT22;6529;50.566;9.774;2023-03-20T17:31:34;10.20;99.90
12926;DHT22;6529;50.566;9.774;2023-03-20T17:33:59;10.10;99.90
12926;DHT22;6529;50.566;9.774;2023-03-20T17:36:28;10.00;99.90
12926;DHT22;6529;50.566;9.774;2023-03-20T17:38:55;9.80;99.90
12926;DHT22;6529;50.566;9.774;2023-03-20T17:41:22;9.80;99.90
12926;DHT22;6529;50.566;9.774;2023-03-20T17:43:48;9.70;99.90
12926;DHT22;6529;50.566;9.774;2023-03-20T17:46:24;9.60;99.90
12926;DHT22;6529;50.566;9.774;2023-03-20T17:48:56;9.50;99.90
12926;DHT22;6529;50.566;9.774;2023-03-20T17:51:22;9.50;99.90
12926;DHT22;6529;50.566;9.774;2023-03-20T17:53:47;9.40;99.90
12926;DHT22;6529;50.566;9.774;2023-03-20T17:56:14;9.40;99.90
12926;DHT22;6529;50.566;9.774;2023-03-20T17:58:40;9.30;99.90
12926;DHT22;6529;50.566;9.774;2023-03-20T18:01:09;9.30;99.90
12926;DHT22;6529;50.566;9.774;2023-03-20T18:03:35;9.30;99.90
12926;DHT22;6529;50.566;9.774;2023-03-20T18:06:01;9.20;99.90
12926;DHT22;6529;50.566;9.774;2023-03-20T18:08:27;9.20;99.90
12926;DHT22;6529;50.566;9.774;2023-03-20T18:10:53;9.20;99.90
12926;DHT22;6529;50.566;9.774;2023-03-20T18:13:20;9.20;99.90
12926;DHT22;6529;50.566;9.774;2023-03-20T18:15:47;9.20;99.90
12926;DHT22;6529;50.566;9.774;2023-03-20T18:18:14;9.10;99.90
12926;DHT22;6529;50.566;9.774;2023-03-20T18:20:40;9.00;99.90
12926;DHT22;6529;50.566;9.774;2023-03-20T18:23:07;8.90;99.90
12926;DHT22;6529;50.566;9.774;2023-03-20T18:25:33;8.90;99.90
12926;DHT22;6529;50.566;9.774;2023-03-20T18:28:00;8.80;99.90
12926;DHT22;6529;50.566;9.774;2023-03-20T18:30:30;8.70;99.90
12926;DHT22;6529;50.566;9.774;2023-03-20T18:32:56;8.70;99.90
12926;DHT22;6529;50.566;9.774;2023-03-20T18:35:22;8.70;99.90
12926;DHT22;6529;50.566;9.774;2023-03-20T18:37:48;8.70;99.90
12926;DHT22;6529;50.566;9.774;2023-03-20T18:40:23;8.60;99.90
12926;DHT22;6529;50.566;9.774;2023-03-20T18:42:53;8.60;99.90
12926;DHT22;6529;50.566;9.774;2023-03-20T18:45:20;8.60;99.90
12926;DHT22;6529;50.566;9.774;2023-03-20T18:47:46;8.60;99.90
12926;DHT22;6529;50.566;9.774;2023-03-20T18:52:47;8.60;99.90
12926;DHT22;6529;50.566;9.774;2023-03-20T18:55:13;8.60;99.90
12926;DHT22;6529;50.566;9.774;2023-03-20T18:57:38;8.60;99.90
12926;DHT22;6529;50.566;9.774;2023-03-20T19:00:27;8.60;99.90
12926;DHT22;6529;50.566;9.774;2023-03-20T19:02:55;8.60;99.90